Terminal Aerodrome Forecast
Issued by NWS Charleston, WV

Current Version | Previous Version | Graphics & Text | Print | Product List | Glossary On
Versions: 1 2 3 4 5 6 7 8 9 10 11 12 13 14 15 16 17 18 19 20 21
000
FTUS41 KRLX 261726
TAFHTS
TAF
KHTS 261726Z 2618/2718 34004KT P6SM BKN050
     FM262100 35006KT P6SM SCT045
     FM270800 00000KT 5SM BR FEW040
     FM271100 00000KT 2SM BR SCT001
     FM271300 00000KT 6SM BR FEW001
     FM271400 VRB03KT P6SM SCT040=

USA.gov is the U.S. government's official web portal to all federal, state and local government web resources and services.